sensor_id;sensor_type;location;lat;lon;timestamp;temperature;humidity
28767;DHT22;15921;52.034;20.650;2023-07-31T00:02:19;18.40;99.90
28767;DHT22;15921;52.034;20.650;2023-07-31T00:04:45;18.40;99.90
28767;DHT22;15921;52.034;20.650;2023-07-31T00:07:11;18.40;99.90
28767;DHT22;15921;52.034;20.650;2023-07-31T00:09:37;18.30;99.90
28767;DHT22;15921;52.034;20.650;2023-07-31T00:12:02;18.30;99.90
28767;DHT22;15921;52.034;20.650;2023-07-31T00:14:28;18.30;99.90
28767;DHT22;15921;52.034;20.650;2023-07-31T00:16:54;18.30;99.90
28767;DHT22;15921;52.034;20.650;2023-07-31T00:19:19;18.30;99.90
28767;DHT22;15921;52.034;20.650;2023-07-31T00:21:45;18.30;99.90
28767;DHT22;15921;52.034;20.650;2023-07-31T00:24:11;18.30;99.90
28767;DHT22;15921;52.034;20.650;2023-07-31T00:26:36;18.30;99.90
28767;DHT22;15921;52.034;20.650;2023-07-31T00:29:02;18.30;99.90
28767;DHT22;15921;52.034;20.650;2023-07-31T00:31:28;18.20;99.90
28767;DHT22;15921;52.034;20.650;2023-07-31T00:33:53;18.20;99.90
28767;DHT22;15921;52.034;20.650;2023-07-31T00:36:19;18.20;99.90
28767;DHT22;15921;52.034;20.650;2023-07-31T00:38:45;18.20;99.90
28767;DHT22;15921;52.034;20.650;2023-07-31T00:41:10;18.20;99.90
28767;DHT22;15921;52.034;20.650;2023-07-31T00:43:36;18.20;99.90
28767;DHT22;15921;52.034;20.650;2023-07-31T00:46:02;18.10;99.90
28767;DHT22;15921;52.034;20.650;2023-07-31T00:48:28;18.00;99.90
28767;DHT22;15921;52.034;20.650;2023-07-31T00:50:53;18.10;99.90
28767;DHT22;15921;52.034;20.650;2023-07-31T00:53:19;18.10;99.90
28767;DHT22;15921;52.034;20.650;2023-07-31T00:55:45;18.10;99.90
28767;DHT22;15921;52.034;20.650;2023-07-31T00:58:11;18.00;99.90
28767;DHT22;15921;52.034;20.650;2023-07-31T01:00:37;18.00;99.90
28767;DHT22;15921;52.034;20.650;2023-07-31T01:03:03;18.00;99.90
28767;DHT22;15921;52.034;20.650;2023-07-31T01:05:54;18.00;99.90
28767;DHT22;15921;52.034;20.650;2023-07-31T01:10:57;17.90;99.90
28767;DHT22;15921;52.034;20.650;2023-07-31T01:13:25;17.90;99.90
28767;DHT22;15921;52.034;20.650;2023-07-31T01:15:51;17.80;99.90
28767;DHT22;15921;52.034;20.650;2023-07-31T01:18:16;17.90;99.90
28767;DHT22;15921;52.034;20.650;2023-07-31T01:20:42;17.80;99.90
28767;DHT22;15921;52.034;20.650;2023-07-31T01:26:12;17.80;99.90
28767;DHT22;15921;52.034;20.650;2023-07-31T01:31:22;17.60;99.90
28767;DHT22;15921;52.034;20.650;2023-07-31T01:33:50;17.60;99.90
28767;DHT22;15921;52.034;20.650;2023-07-31T01:36:18;17.60;99.90
28767;DHT22;15921;52.034;20.650;2023-07-31T01:38:44;17.60;99.90
28767;DHT22;15921;52.034;20.650;2023-07-31T01:41:09;17.60;99.90
28767;DHT22;15921;52.034;20.650;2023-07-31T01:43:35;17.60;99.90
28767;DHT22;15921;52.034;20.650;2023-07-31T01:46:01;17.60;99.90
28767;DHT22;15921;52.034;20.650;2023-07-31T01:48:26;17.60;99.90
28767;DHT22;15921;52.034;20.650;2023-07-31T01:50:52;17.60;99.90
28767;DHT22;15921;52.034;20.650;2023-07-31T01:53:18;17.60;99.90
28767;DHT22;15921;52.034;20.650;2023-07-31T01:55:43;17.60;99.90
28767;DHT22;15921;52.034;20.650;2023-07-31T01:58:09;17.60;99.90
28767;DHT22;15921;52.034;20.650;2023-07-31T02:00:35;17.60;99.90
28767;DHT22;15921;52.034;20.650;2023-07-31T02:03:01;17.50;99.90
28767;DHT22;15921;52.034;20.650;2023-07-31T02:05:26;17.50;99.90
28767;DHT22;15921;52.034;20.650;2023-07-31T02:07:52;17.60;99.90
28767;DHT22;15921;52.034;20.650;2023-07-31T02:10:17;17.60;99.90
28767;DHT22;15921;52.034;20.650;2023-07-31T02:12:43;17.50;99.90
28767;DHT22;15921;52.034;20.650;2023-07-31T02:15:09;17.60;99.90
28767;DHT22;15921;52.034;20.650;2023-07-31T02:17:35;17.60;99.90
28767;DHT22;15921;52.034;20.650;2023-07-31T02:20:01;17.60;99.90
28767;DHT22;15921;52.034;20.650;2023-07-31T02:22:26;17.70;99.90
28767;DHT22;15921;52.034;20.650;2023-07-31T02:24:52;17.70;99.90
28767;DHT22;15921;52.034;20.650;2023-07-31T02:27:17;17.70;99.90
28767;DHT22;15921;52.034;20.650;2023-07-31T02:29:43;17.80;99.90
28767;DHT22;15921;52.034;20.650;2023-07-31T02:32:09;17.70;99.90
28767;DHT22;15921;52.034;20.650;2023-07-31T02:34:34;17.80;99.90
28767;DHT22;15921;52.034;20.650;2023-07-31T02:37:00;17.80;99.90
28767;DHT22;15921;52.034;20.650;2023-07-31T02:39:26;17.80;99.90
28767;DHT22;15921;52.034;20.650;2023-07-31T02:41:51;17.80;99.90
28767;DHT22;15921;52.034;20.650;2023-07-31T02:44:17;17.80;99.90
28767;DHT22;15921;52.034;20.650;2023-07-31T02:46:43;17.80;99.90
28767;DHT22;15921;52.034;20.650;2023-07-31T02:49:08;17.90;99.90
28767;DHT22;15921;52.034;20.650;2023-07-31T02:51:34;17.80;99.90
28767;DHT22;15921;52.034;20.650;2023-07-31T02:53:59;17.90;99.90
28767;DHT22;15921;52.034;20.650;2023-07-31T02:56:25;17.90;99.90
28767;DHT22;15921;52.034;20.650;2023-07-31T02:58:51;17.90;99.90
28767;DHT22;15921;52.034;20.650;2023-07-31T03:01:16;17.90;99.90
28767;DHT22;15921;52.034;20.650;2023-07-31T03:03:42;17.90;99.90
28767;DHT22;15921;52.034;20.650;2023-07-31T03:06:08;17.90;99.90
28767;DHT22;15921;52.034;20.650;2023-07-31T03:08:33;18.00;99.90
28767;DHT22;15921;52.034;20.650;2023-07-31T03:10:59;18.00;99.90
28767;DHT22;15921;52.034;20.650;2023-07-31T03:13:25;17.90;99.90
28767;DHT22;15921;52.034;20.650;2023-07-31T03:15:51;18.00;99.90
28767;DHT22;15921;52.034;20.650;2023-07-31T03:18:16;18.00;99.90
28767;DHT22;15921;52.034;20.650;2023-07-31T03:20:43;18.00;99.90
28767;DHT22;15921;52.034;20.650;2023-07-31T03:23:09;18.00;99.90
28767;DHT22;15921;52.034;20.650;2023-07-31T03:25:35;18.00;99.90
28767;DHT22;15921;52.034;20.650;2023-07-31T03:28:00;18.00;99.90
28767;DHT22;15921;52.034;20.650;2023-07-31T03:30:26;18.10;99.90
28767;DHT22;15921;52.034;20.650;2023-07-31T03:32:52;18.10;99.90
28767;DHT22;15921;52.034;20.650;2023-07-31T03:35:18;18.10;99.90
28767;DHT22;15921;52.034;20.650;2023-07-31T03:37:43;18.10;99.90
28767;DHT22;15921;52.034;20.650;2023-07-31T03:40:10;18.10;99.90
28767;DHT22;15921;52.034;20.650;2023-07-31T03:42:35;18.10;99.90
28767;DHT22;15921;52.034;20.650;2023-07-31T03:45:01;18.10;99.90
28767;DHT22;15921;52.034;20.650;2023-07-31T03:47:27;18.20;99.90
28767;DHT22;15921;52.034;20.650;2023-07-31T03:49:52;18.20;99.90
28767;DHT22;15921;52.034;20.650;2023-07-31T03:52:18;18.20;99.90
28767;DHT22;15921;52.034;20.650;2023-07-31T03:54:44;18.20;99.90
28767;DHT22;15921;52.034;20.650;2023-07-31T03:57:12;18.20;99.90
28767;DHT22;15921;52.034;20.650;2023-07-31T03:59:38;18.20;99.90
28767;DHT22;15921;52.034;20.650;2023-07-31T04:02:06;18.20;99.90
28767;DHT22;15921;52.034;20.650;2023-07-31T04:04:32;18.30;99.90
28767;DHT22;15921;52.034;20.650;2023-07-31T04:06:57;18.20;99.90
28767;DHT22;15921;52.034;20.650;2023-07-31T04:09:23;18.20;99.90
28767;DHT22;15921;52.034;20.650;2023-07-31T04:11:49;18.30;99.90
28767;DHT22;15921;52.034;20.650;2023-07-31T04:14:15;18.30;99.90
28767;DHT22;15921;52.034;20.650;2023-07-31T04:16:40;18.40;99.90
28767;DHT22;15921;52.034;20.650;2023-07-31T04:19:06;18.40;99.90
28767;DHT22;15921;52.034;20.650;2023-07-31T04:21:31;18.50;99.90
28767;DHT22;15921;52.034;20.650;2023-07-31T04:23:57;18.50;99.90
28767;DHT22;15921;52.034;20.650;2023-07-31T04:26:23;18.50;99.90
28767;DHT22;15921;52.034;20.650;2023-07-31T04:28:49;18.50;99.90
28767;DHT22;15921;52.034;20.650;2023-07-31T04:31:15;18.50;99.90
28767;DHT22;15921;52.034;20.650;2023-07-31T04:33:40;18.50;99.90
28767;DHT22;15921;52.034;20.650;2023-07-31T04:36:06;18.50;99.90
28767;DHT22;15921;52.034;20.650;2023-07-31T04:38:32;18.60;99.90
28767;DHT22;15921;52.034;20.650;2023-07-31T04:40:57;18.60;99.90
28767;DHT22;15921;52.034;20.650;2023-07-31T04:43:23;18.60;99.90
28767;DHT22;15921;52.034;20.650;2023-07-31T04:45:49;18.70;99.90
28767;DHT22;15921;52.034;20.650;2023-07-31T04:48:15;18.70;99.90
28767;DHT22;15921;52.034;20.650;2023-07-31T04:50:41;18.90;99.90
28767;DHT22;15921;52.034;20.650;2023-07-31T04:53:07;18.90;99.90
28767;DHT22;15921;52.034;20.650;2023-07-31T04:55:33;19.00;99.90
28767;DHT22;15921;52.034;20.650;2023-07-31T04:57:59;19.10;99.90
28767;DHT22;15921;52.034;20.650;2023-07-31T05:00:25;19.20;99.90
28767;DHT22;15921;52.034;20.650;2023-07-31T05:02:50;19.30;99.90
28767;DHT22;15921;52.034;20.650;2023-07-31T05:05:16;19.40;99.90
28767;DHT22;15921;52.034;20.650;2023-07-31T05:07:42;19.50;99.90
28767;DHT22;15921;52.034;20.650;2023-07-31T05:10:08;19.60;99.90
28767;DHT22;15921;52.034;20.650;2023-07-31T05:12:33;19.60;99.90
28767;DHT22;15921;52.034;20.650;2023-07-31T05:14:59;19.70;99.90
28767;DHT22;15921;52.034;20.650;2023-07-31T05:17:24;19.70;99.90
28767;DHT22;15921;52.034;20.650;2023-07-31T05:19:50;19.70;99.90
28767;DHT22;15921;52.034;20.650;2023-07-31T05:22:16;19.70;99.90
28767;DHT22;15921;52.034;20.650;2023-07-31T05:24:41;19.60;99.90
28767;DHT22;15921;52.034;20.650;2023-07-31T05:27:07;19.60;99.90
28767;DHT22;15921;52.034;20.650;2023-07-31T05:29:33;19.50;99.90
28767;DHT22;15921;52.034;20.650;2023-07-31T05:31:59;19.40;99.90
28767;DHT22;15921;52.034;20.650;2023-07-31T05:34:24;19.40;99.90
28767;DHT22;15921;52.034;20.650;2023-07-31T05:36:50;19.30;99.90
28767;DHT22;15921;52.034;20.650;2023-07-31T05:39:16;19.30;99.90
28767;DHT22;15921;52.034;20.650;2023-07-31T05:41:41;19.30;99.90
28767;DHT22;15921;52.034;20.650;2023-07-31T05:44:07;19.30;99.90
28767;DHT22;15921;52.034;20.650;2023-07-31T05:46:33;19.20;99.90
28767;DHT22;15921;52.034;20.650;2023-07-31T05:48:59;19.10;99.90
28767;DHT22;15921;52.034;20.650;2023-07-31T05:51:26;19.10;99.90
28767;DHT22;15921;52.034;20.650;2023-07-31T05:53:53;19.00;99.90
28767;DHT22;15921;52.034;20.650;2023-07-31T05:56:18;18.90;99.90
28767;DHT22;15921;52.034;20.650;2023-07-31T05:58:44;19.00;99.90
28767;DHT22;15921;52.034;20.650;2023-07-31T06:01:09;19.00;99.90
28767;DHT22;15921;52.034;20.650;2023-07-31T06:03:35;18.90;99.90
28767;DHT22;15921;52.034;20.650;2023-07-31T06:06:01;19.00;99.90
28767;DHT22;15921;52.034;20.650;2023-07-31T06:08:26;19.10;99.90
28767;DHT22;15921;52.034;20.650;2023-07-31T06:10:52;19.30;99.90
28767;DHT22;15921;52.034;20.650;2023-07-31T06:13:18;19.30;99.90
28767;DHT22;15921;52.034;20.650;2023-07-31T06:15:43;19.50;99.90
28767;DHT22;15921;52.034;20.650;2023-07-31T06:18:09;19.60;99.90
28767;DHT22;15921;52.034;20.650;2023-07-31T06:20:35;19.80;99.90
28767;DHT22;15921;52.034;20.650;2023-07-31T06:23:01;19.80;99.90
28767;DHT22;15921;52.034;20.650;2023-07-31T06:25:27;20.00;99.90
28767;DHT22;15921;52.034;20.650;2023-07-31T06:27:53;20.00;99.90
28767;DHT22;15921;52.034;20.650;2023-07-31T06:30:19;20.20;99.90
28767;DHT22;15921;52.034;20.650;2023-07-31T06:32:44;20.20;99.90
28767;DHT22;15921;52.034;20.650;2023-07-31T06:35:10;20.30;99.90
28767;DHT22;15921;52.034;20.650;2023-07-31T06:37:36;20.30;99.90
28767;DHT22;15921;52.034;20.650;2023-07-31T06:40:01;20.40;99.90
28767;DHT22;15921;52.034;20.650;2023-07-31T06:42:27;20.40;99.90
28767;DHT22;15921;52.034;20.650;2023-07-31T06:44:53;20.40;99.90
28767;DHT22;15921;52.034;20.650;2023-07-31T06:47:18;20.50;99.90
28767;DHT22;15921;52.034;20.650;2023-07-31T06:49:44;20.60;99.90
28767;DHT22;15921;52.034;20.650;2023-07-31T06:52:10;20.70;99.90
28767;DHT22;15921;52.034;20.650;2023-07-31T06:54:36;20.80;99.90
28767;DHT22;15921;52.034;20.650;2023-07-31T06:57:02;20.80;99.90
28767;DHT22;15921;52.034;20.650;2023-07-31T06:59:29;20.80;99.90
28767;DHT22;15921;52.034;20.650;2023-07-31T07:01:54;21.10;99.90
28767;DHT22;15921;52.034;20.650;2023-07-31T07:04:20;21.10;99.90
28767;DHT22;15921;52.034;20.650;2023-07-31T07:06:46;21.40;99.90
28767;DHT22;15921;52.034;20.650;2023-07-31T07:09:11;21.60;99.90
28767;DHT22;15921;52.034;20.650;2023-07-31T07:11:37;21.90;99.90
28767;DHT22;15921;52.034;20.650;2023-07-31T07:14:03;22.00;99.90
28767;DHT22;15921;52.034;20.650;2023-07-31T07:16:29;22.10;99.90
28767;DHT22;15921;52.034;20.650;2023-07-31T07:18:54;22.30;99.90
28767;DHT22;15921;52.034;20.650;2023-07-31T07:21:20;22.30;99.90
28767;DHT22;15921;52.034;20.650;2023-07-31T07:23:46;22.50;99.90
28767;DHT22;15921;52.034;20.650;2023-07-31T07:26:11;22.70;99.90
28767;DHT22;15921;52.034;20.650;2023-07-31T07:28:37;22.80;99.90
28767;DHT22;15921;52.034;20.650;2023-07-31T07:31:03;22.70;99.90
28767;DHT22;15921;52.034;20.650;2023-07-31T07:33:29;22.70;99.90
28767;DHT22;15921;52.034;20.650;2023-07-31T07:35:54;22.80;99.90
28767;DHT22;15921;52.034;20.650;2023-07-31T07:38:20;22.90;99.90
28767;DHT22;15921;52.034;20.650;2023-07-31T07:40:46;23.00;99.90
28767;DHT22;15921;52.034;20.650;2023-07-31T07:43:16;22.90;99.90
28767;DHT22;15921;52.034;20.650;2023-07-31T07:45:41;22.70;99.90
28767;DHT22;15921;52.034;20.650;2023-07-31T07:48:07;22.50;99.90
28767;DHT22;15921;52.034;20.650;2023-07-31T07:50:33;22.50;99.40
28767;DHT22;15921;52.034;20.650;2023-07-31T07:52:58;22.40;99.30
28767;DHT22;15921;52.034;20.650;2023-07-31T07:55:24;22.50;99.20
28767;DHT22;15921;52.034;20.650;2023-07-31T07:57:49;22.50;99.30
28767;DHT22;15921;52.034;20.650;2023-07-31T08:00:16;22.50;99.00
28767;DHT22;15921;52.034;20.650;2023-07-31T08:02:43;22.50;99.00
28767;DHT22;15921;52.034;20.650;2023-07-31T08:05:08;22.50;99.00
28767;DHT22;15921;52.034;20.650;2023-07-31T08:07:34;22.70;98.60
28767;DHT22;15921;52.034;20.650;2023-07-31T08:10:00;22.70;98.40
28767;DHT22;15921;52.034;20.650;2023-07-31T08:12:26;22.90;97.50
28767;DHT22;15921;52.034;20.650;2023-07-31T08:14:51;23.10;96.80
28767;DHT22;15921;52.034;20.650;2023-07-31T08:17:17;23.20;96.40
28767;DHT22;15921;52.034;20.650;2023-07-31T08:19:43;23.40;95.60
28767;DHT22;15921;52.034;20.650;2023-07-31T08:22:09;23.60;94.90
28767;DHT22;15921;52.034;20.650;2023-07-31T08:24:35;23.60;94.40
28767;DHT22;15921;52.034;20.650;2023-07-31T08:27:00;23.70;93.70
28767;DHT22;15921;52.034;20.650;2023-07-31T08:29:26;23.70;93.30
28767;DHT22;15921;52.034;20.650;2023-07-31T08:31:52;23.70;92.80
28767;DHT22;15921;52.034;20.650;2023-07-31T08:34:17;23.80;92.90
28767;DHT22;15921;52.034;20.650;2023-07-31T08:36:43;23.80;92.60
28767;DHT22;15921;52.034;20.650;2023-07-31T08:39:09;23.90;91.60
28767;DHT22;15921;52.034;20.650;2023-07-31T08:41:39;23.90;91.20
28767;DHT22;15921;52.034;20.650;2023-07-31T08:44:05;24.00;90.60
28767;DHT22;15921;52.034;20.650;2023-07-31T08:46:31;24.20;90.30
28767;DHT22;15921;52.034;20.650;2023-07-31T08:48:58;24.30;89.40
28767;DHT22;15921;52.034;20.650;2023-07-31T08:51:24;24.60;89.70
28767;DHT22;15921;52.034;20.650;2023-07-31T08:53:50;24.80;87.80
28767;DHT22;15921;52.034;20.650;2023-07-31T08:56:16;25.00;86.80
28767;DHT22;15921;52.034;20.650;2023-07-31T08:58:43;25.20;85.40
28767;DHT22;15921;52.034;20.650;2023-07-31T09:01:09;25.10;83.60
28767;DHT22;15921;52.034;20.650;2023-07-31T09:03:36;25.00;83.20
28767;DHT22;15921;52.034;20.650;2023-07-31T09:06:03;25.00;83.30
28767;DHT22;15921;52.034;20.650;2023-07-31T09:08:31;24.90;83.10
28767;DHT22;15921;52.034;20.650;2023-07-31T09:11:00;24.80;83.80
28767;DHT22;15921;52.034;20.650;2023-07-31T09:13:31;25.00;83.00
28767;DHT22;15921;52.034;20.650;2023-07-31T09:15:57;25.10;82.50
28767;DHT22;15921;52.034;20.650;2023-07-31T09:18:23;25.00;81.70
28767;DHT22;15921;52.034;20.650;2023-07-31T09:21:05;25.00;81.80
28767;DHT22;15921;52.034;20.650;2023-07-31T09:23:41;25.20;82.90
28767;DHT22;15921;52.034;20.650;2023-07-31T09:26:07;25.50;83.00
28767;DHT22;15921;52.034;20.650;2023-07-31T09:28:33;25.60;81.50
28767;DHT22;15921;52.034;20.650;2023-07-31T09:30:58;25.70;80.70
28767;DHT22;15921;52.034;20.650;2023-07-31T09:33:24;25.70;79.60
28767;DHT22;15921;52.034;20.650;2023-07-31T09:35:50;25.70;78.40
28767;DHT22;15921;52.034;20.650;2023-07-31T09:38:16;25.90;78.10
28767;DHT22;15921;52.034;20.650;2023-07-31T09:40:49;26.10;76.90
28767;DHT22;15921;52.034;20.650;2023-07-31T09:43:19;26.00;74.90
28767;DHT22;15921;52.034;20.650;2023-07-31T09:45:45;26.10;74.90
28767;DHT22;15921;52.034;20.650;2023-07-31T09:48:13;26.20;74.30
28767;DHT22;15921;52.034;20.650;2023-07-31T09:50:43;25.90;74.00
28767;DHT22;15921;52.034;20.650;2023-07-31T09:53:09;25.90;73.70
28767;DHT22;15921;52.034;20.650;2023-07-31T09:55:36;25.80;74.00
28767;DHT22;15921;52.034;20.650;2023-07-31T09:58:07;26.00;73.30
28767;DHT22;15921;52.034;20.650;2023-07-31T10:00:33;26.30;72.30
28767;DHT22;15921;52.034;20.650;2023-07-31T10:03:01;26.40;72.10
28767;DHT22;15921;52.034;20.650;2023-07-31T10:05:39;26.40;71.60
28767;DHT22;15921;52.034;20.650;2023-07-31T10:08:07;26.30;71.10
28767;DHT22;15921;52.034;20.650;2023-07-31T10:10:36;26.30;70.50
28767;DHT22;15921;52.034;20.650;2023-07-31T10:13:03;26.10;70.80
28767;DHT22;15921;52.034;20.650;2023-07-31T10:15:30;26.00;70.10
28767;DHT22;15921;52.034;20.650;2023-07-31T10:17:56;26.00;70.40
28767;DHT22;15921;52.034;20.650;2023-07-31T10:20:23;26.00;70.00
28767;DHT22;15921;52.034;20.650;2023-07-31T10:22:49;26.20;70.60
28767;DHT22;15921;52.034;20.650;2023-07-31T10:25:15;26.40;69.40
28767;DHT22;15921;52.034;20.650;2023-07-31T10:27:42;26.80;69.20
28767;DHT22;15921;52.034;20.650;2023-07-31T10:30:11;27.10;67.80
28767;DHT22;15921;52.034;20.650;2023-07-31T10:32:39;27.00;66.70
28767;DHT22;15921;52.034;20.650;2023-07-31T10:35:06;27.00;66.40
28767;DHT22;15921;52.034;20.650;2023-07-31T10:37:40;27.00;66.40
28767;DHT22;15921;52.034;20.650;2023-07-31T10:40:17;27.20;66.20
28767;DHT22;15921;52.034;20.650;2023-07-31T10:42:53;27.50;65.80
28767;DHT22;15921;52.034;20.650;2023-07-31T10:45:42;27.60;66.40
28767;DHT22;15921;52.034;20.650;2023-07-31T10:48:17;27.80;63.30
28767;DHT22;15921;52.034;20.650;2023-07-31T10:50:55;27.80;64.50
28767;DHT22;15921;52.034;20.650;2023-07-31T10:53:32;28.00;63.30
28767;DHT22;15921;52.034;20.650;2023-07-31T10:56:04;28.00;61.80
28767;DHT22;15921;52.034;20.650;2023-07-31T10:58:30;28.00;61.80
28767;DHT22;15921;52.034;20.650;2023-07-31T11:01:02;28.10;62.70
28767;DHT22;15921;52.034;20.650;2023-07-31T11:03:47;28.20;61.10
28767;DHT22;15921;52.034;20.650;2023-07-31T11:06:15;28.10;59.80
28767;DHT22;15921;52.034;20.650;2023-07-31T11:08:43;28.40;60.70
28767;DHT22;15921;52.034;20.650;2023-07-31T11:11:11;28.60;60.00
28767;DHT22;15921;52.034;20.650;2023-07-31T11:13:52;28.60;58.30
28767;DHT22;15921;52.034;20.650;2023-07-31T11:16:20;28.50;58.40
28767;DHT22;15921;52.034;20.650;2023-07-31T11:18:46;28.50;58.90
28767;DHT22;15921;52.034;20.650;2023-07-31T11:21:18;28.40;58.30
28767;DHT22;15921;52.034;20.650;2023-07-31T11:23:52;28.40;58.00
28767;DHT22;15921;52.034;20.650;2023-07-31T11:26:19;28.50;57.80
28767;DHT22;15921;52.034;20.650;2023-07-31T11:28:49;28.40;57.80
28767;DHT22;15921;52.034;20.650;2023-07-31T11:31:14;28.20;58.30
28767;DHT22;15921;52.034;20.650;2023-07-31T11:33:40;28.10;58.70
28767;DHT22;15921;52.034;20.650;2023-07-31T11:36:14;28.00;59.40
28767;DHT22;15921;52.034;20.650;2023-07-31T11:38:39;28.00;59.40
28767;DHT22;15921;52.034;20.650;2023-07-31T11:41:05;27.80;59.10
28767;DHT22;15921;52.034;20.650;2023-07-31T11:43:31;27.50;59.20
28767;DHT22;15921;52.034;20.650;2023-07-31T11:46:01;27.50;60.00
28767;DHT22;15921;52.034;20.650;2023-07-31T11:48:34;27.50;60.20
28767;DHT22;15921;52.034;20.650;2023-07-31T11:51:05;27.50;60.80
28767;DHT22;15921;52.034;20.650;2023-07-31T11:53:33;27.60;60.30
28767;DHT22;15921;52.034;20.650;2023-07-31T11:56:01;27.80;59.70
28767;DHT22;15921;52.034;20.650;2023-07-31T11:58:31;28.10;59.30
28767;DHT22;15921;52.034;20.650;2023-07-31T12:00:58;28.20;58.70
28767;DHT22;15921;52.034;20.650;2023-07-31T12:03:23;28.20;59.10
28767;DHT22;15921;52.034;20.650;2023-07-31T12:05:49;28.60;58.80
28767;DHT22;15921;52.034;20.650;2023-07-31T12:08:15;28.70;58.30
28767;DHT22;15921;52.034;20.650;2023-07-31T12:10:41;28.60;58.40
28767;DHT22;15921;52.034;20.650;2023-07-31T12:13:12;28.50;58.80
28767;DHT22;15921;52.034;20.650;2023-07-31T12:15:45;28.20;59.10
28767;DHT22;15921;52.034;20.650;2023-07-31T12:18:13;27.90;59.50
28767;DHT22;15921;52.034;20.650;2023-07-31T12:20:54;27.70;60.00
28767;DHT22;15921;52.034;20.650;2023-07-31T12:23:21;27.40;59.80
28767;DHT22;15921;52.034;20.650;2023-07-31T12:26:16;27.00;61.00
28767;DHT22;15921;52.034;20.650;2023-07-31T12:28:46;27.00;61.10
28767;DHT22;15921;52.034;20.650;2023-07-31T12:31:22;27.00;60.80
28767;DHT22;15921;52.034;20.650;2023-07-31T12:33:49;27.10;60.40
28767;DHT22;15921;52.034;20.650;2023-07-31T12:36:23;27.30;60.20
28767;DHT22;15921;52.034;20.650;2023-07-31T12:38:50;27.60;59.70
28767;DHT22;15921;52.034;20.650;2023-07-31T12:41:16;28.10;58.80
28767;DHT22;15921;52.034;20.650;2023-07-31T12:43:43;29.10;57.80
28767;DHT22;15921;52.034;20.650;2023-07-31T12:46:09;30.00;56.10
28767;DHT22;15921;52.034;20.650;2023-07-31T12:48:35;30.20;55.60
28767;DHT22;15921;52.034;20.650;2023-07-31T12:51:01;30.90;54.80
28767;DHT22;15921;52.034;20.650;2023-07-31T12:53:28;32.80;52.40
28767;DHT22;15921;52.034;20.650;2023-07-31T12:55:57;34.20;50.30
28767;DHT22;15921;52.034;20.650;2023-07-31T12:58:23;35.90;48.40
28767;DHT22;15921;52.034;20.650;2023-07-31T13:00:49;37.30;46.50
28767;DHT22;15921;52.034;20.650;2023-07-31T13:03:14;37.40;45.40
28767;DHT22;15921;52.034;20.650;2023-07-31T13:05:40;36.10;46.10
28767;DHT22;15921;52.034;20.650;2023-07-31T13:08:06;35.90;45.90
28767;DHT22;15921;52.034;20.650;2023-07-31T13:10:31;35.60;45.70
28767;DHT22;15921;52.034;20.650;2023-07-31T13:12:57;36.00;45.20
28767;DHT22;15921;52.034;20.650;2023-07-31T13:15:23;38.50;42.90
28767;DHT22;15921;52.034;20.650;2023-07-31T13:17:49;40.80;40.30
28767;DHT22;15921;52.034;20.650;2023-07-31T13:20:14;41.20;39.10
28767;DHT22;15921;52.034;20.650;2023-07-31T13:22:40;40.40;38.00
28767;DHT22;15921;52.034;20.650;2023-07-31T13:25:06;37.40;40.00
28767;DHT22;15921;52.034;20.650;2023-07-31T13:27:32;34.90;42.60
28767;DHT22;15921;52.034;20.650;2023-07-31T13:29:58;35.00;43.70
28767;DHT22;15921;52.034;20.650;2023-07-31T13:32:23;34.60;44.10
28767;DHT22;15921;52.034;20.650;2023-07-31T13:34:49;34.40;44.10
28767;DHT22;15921;52.034;20.650;2023-07-31T13:37:15;33.60;44.90
28767;DHT22;15921;52.034;20.650;2023-07-31T13:39:41;32.90;45.90
28767;DHT22;15921;52.034;20.650;2023-07-31T13:42:08;31.90;46.90
28767;DHT22;15921;52.034;20.650;2023-07-31T13:44:37;30.70;48.50
28767;DHT22;15921;52.034;20.650;2023-07-31T13:47:03;29.60;50.00
28767;DHT22;15921;52.034;20.650;2023-07-31T13:49:29;28.80;51.10
28767;DHT22;15921;52.034;20.650;2023-07-31T13:51:55;28.40;51.80
28767;DHT22;15921;52.034;20.650;2023-07-31T13:54:22;28.20;52.60
28767;DHT22;15921;52.034;20.650;2023-07-31T13:56:48;28.20;53.00
28767;DHT22;15921;52.034;20.650;2023-07-31T13:59:14;28.20;52.80
28767;DHT22;15921;52.034;20.650;2023-07-31T14:01:42;28.20;53.10
28767;DHT22;15921;52.034;20.650;2023-07-31T14:04:08;28.40;53.00
28767;DHT22;15921;52.034;20.650;2023-07-31T14:06:33;29.00;52.50
28767;DHT22;15921;52.034;20.650;2023-07-31T14:08:59;30.50;50.90
28767;DHT22;15921;52.034;20.650;2023-07-31T14:11:26;32.20;48.60
28767;DHT22;15921;52.034;20.650;2023-07-31T14:13:52;34.00;46.80
28767;DHT22;15921;52.034;20.650;2023-07-31T14:16:18;34.90;45.50
28767;DHT22;15921;52.034;20.650;2023-07-31T14:18:43;35.30;44.50
28767;DHT22;15921;52.034;20.650;2023-07-31T14:21:11;35.20;44.40
28767;DHT22;15921;52.034;20.650;2023-07-31T14:23:37;34.10;45.90
28767;DHT22;15921;52.034;20.650;2023-07-31T14:26:02;33.10;46.70
28767;DHT22;15921;52.034;20.650;2023-07-31T14:28:28;32.20;47.70
28767;DHT22;15921;52.034;20.650;2023-07-31T14:30:54;31.30;49.60
28767;DHT22;15921;52.034;20.650;2023-07-31T14:33:20;30.70;50.40
28767;DHT22;15921;52.034;20.650;2023-07-31T14:35:45;30.20;50.80
28767;DHT22;15921;52.034;20.650;2023-07-31T14:38:11;29.80;51.50
28767;DHT22;15921;52.034;20.650;2023-07-31T14:40:36;29.70;52.10
28767;DHT22;15921;52.034;20.650;2023-07-31T14:43:04;29.70;52.30
28767;DHT22;15921;52.034;20.650;2023-07-31T14:45:29;29.40;52.50
28767;DHT22;15921;52.034;20.650;2023-07-31T14:47:55;29.30;53.10
28767;DHT22;15921;52.034;20.650;2023-07-31T14:50:21;29.50;52.80
28767;DHT22;15921;52.034;20.650;2023-07-31T14:52:48;29.50;52.40
28767;DHT22;15921;52.034;20.650;2023-07-31T14:55:14;29.90;51.90
28767;DHT22;15921;52.034;20.650;2023-07-31T14:57:40;31.60;51.30
28767;DHT22;15921;52.034;20.650;2023-07-31T15:00:06;32.50;49.30
28767;DHT22;15921;52.034;20.650;2023-07-31T15:02:34;32.30;49.10
28767;DHT22;15921;52.034;20.650;2023-07-31T15:05:00;32.40;49.00
28767;DHT22;15921;52.034;20.650;2023-07-31T15:07:25;33.00;48.60
28767;DHT22;15921;52.034;20.650;2023-07-31T15:09:51;32.60;48.60
28767;DHT22;15921;52.034;20.650;2023-07-31T15:12:17;31.60;49.40
28767;DHT22;15921;52.034;20.650;2023-07-31T15:14:43;30.50;51.20
28767;DHT22;15921;52.034;20.650;2023-07-31T15:17:08;29.90;52.70
28767;DHT22;15921;52.034;20.650;2023-07-31T15:19:34;29.10;54.00
28767;DHT22;15921;52.034;20.650;2023-07-31T15:22:02;28.60;54.70